This is the latest recevied weather packets stored in our database for station/object YD2CLX-11. If no packets are shown the sender has not sent any weather packets the latest 10 day(s).
| Time | Temp. | Humidity | Pressure | Rain* | Wind** | Luminosity | Snow |
|---|---|---|---|---|---|---|---|
| 1788593707 | 34.44° C | 44% | 997.9 hPa | - | - | - | - |
| 1788593106 | 34.44° C | 43% | 998 hPa | - | - | - | - |
| 1788592505 | 33.33° C | 45% | 998.2 hPa | - | - | - | - |
| 1788591904 | 33.33° C | 46% | 998.3 hPa | - | - | - | - |
| 1788591303 | 34.44° C | 44% | 998.2 hPa | - | - | - | - |
| 1788590702 | 35.56° C | 42% | 998.3 hPa | - | - | - | - |
| 1788590101 | 34.44° C | 44% | 998.5 hPa | - | - | - | - |
| 1788589500 | 36.11° C | 41% | 998.3 hPa | - | - | - | - |
| 1788588899 | 35° C | 42% | 998.4 hPa | - | - | - | - |
| 1788588297 | 37.22° C | 39% | 998.5 hPa | - | - | - | - |
| 1788587696 | 37.78° C | 38% | 998.4 hPa | - | - | - | - |
| 1788587095 | 37.22° C | 39% | 998.5 hPa | - | - | - | - |
| 1788586493 | 36.11° C | 41% | 998.7 hPa | - | - | - | - |
| 1788585892 | 37.22° C | 39% | 998.8 hPa | - | - | - | - |
| 1788585291 | 35.56° C | 42% | 998.8 hPa | - | - | - | - |
| 1788584689 | 36.11° C | 40% | 999 hPa | - | - | - | - |
| 1788584088 | 37.78° C | 38% | 999.2 hPa | - | - | - | - |
| 1788583488 | 35° C | 42% | 999.4 hPa | - | - | - | - |
| 1788582887 | 36.67° C | 39% | 999.5 hPa | - | - | - | - |
| 1788582286 | 36.11° C | 41% | 999.8 hPa | - | - | - | - |
| 1788581685 | 36.11° C | 42% | 999.8 hPa | - | - | - | - |
| 1788581084 | 35.56° C | 42% | 1000.2 hPa | - | - | - | - |
| 1788580483 | 35° C | 44% | 1000.3 hPa | - | - | - | - |
| 1788579906 | 36.11° C | 42% | 1000.6 hPa | - | - | - | - |
| 1788579280 | 35.56° C | 44% | 1000.8 hPa | - | - | - | - |
* Rain since midnight (hover to see other rain measurements)
** Current wind speed in m/s (hover to see current wind gust speed)